createdAt,value
2022-11-06T00:01:15.237Z,18.70
2022-11-06T00:03:42.364Z,18.30
2022-11-06T00:06:29.501Z,17.92
2022-11-06T00:08:58.906Z,19.70
2022-11-06T00:11:25.881Z,18.50
2022-11-06T00:13:52.695Z,22.80
2022-11-06T00:16:20.311Z,13.93
2022-11-06T00:18:48.197Z,16.48
2022-11-06T00:21:27.688Z,17.55
2022-11-06T00:23:57.399Z,15.60
2022-11-06T00:26:26.587Z,17.67
2022-11-06T00:28:54.634Z,18.40
2022-11-06T00:31:24.323Z,20.13
2022-11-06T00:33:51.472Z,16.55
2022-11-06T00:36:20.648Z,18.42
2022-11-06T00:38:48.088Z,16.80
2022-11-06T00:41:16.317Z,13.47
2022-11-06T00:43:47.905Z,13.45
2022-11-06T00:46:15.350Z,19.48
2022-11-06T00:48:42.450Z,20.92
2022-11-06T00:51:15.538Z,13.77
2022-11-06T00:53:43.353Z,17.60
2022-11-06T00:56:15.904Z,19.58
2022-11-06T00:58:43.424Z,20.52
2022-11-06T01:01:16.114Z,15.48
2022-11-06T01:03:44.877Z,13.60
2022-11-06T01:06:23.328Z,14.93
2022-11-06T01:08:50.773Z,15.93
2022-11-06T01:11:23.989Z,12.63
2022-11-06T01:13:52.917Z,17.73
2022-11-06T01:16:20.068Z,18.55
2022-11-06T01:18:47.449Z,14.43
2022-11-06T01:21:23.361Z,14.68
2022-11-06T01:24:08.569Z,16.13
2022-11-06T01:26:39.244Z,15.18
2022-11-06T01:29:13.928Z,14.18
2022-11-06T01:31:41.137Z,9.40
2022-11-06T01:34:08.348Z,13.95
2022-11-06T01:36:35.275Z,10.43
2022-11-06T01:39:04.897Z,8.70
2022-11-06T01:41:35.066Z,10.75
2022-11-06T01:44:22.010Z,9.80
2022-11-06T01:46:49.076Z,8.88
2022-11-06T01:49:16.994Z,9.07
2022-11-06T01:51:54.723Z,7.80
2022-11-06T01:54:24.345Z,8.65
2022-11-06T01:56:56.866Z,8.27
2022-11-06T01:59:27.332Z,9.80
2022-11-06T02:01:54.638Z,6.55
2022-11-06T02:04:28.448Z,10.98
2022-11-06T02:06:57.419Z,13.70
2022-11-06T02:09:25.515Z,12.63
2022-11-06T02:12:19.307Z,15.35
2022-11-06T02:15:24.853Z,12.55
2022-11-06T02:18:00.714Z,14.75
2022-11-06T02:21:01.498Z,15.38
2022-11-06T02:23:57.207Z,21.60
2022-11-06T02:26:56.400Z,24.75
2022-11-06T02:29:34.266Z,24.77
2022-11-06T02:32:10.075Z,31.50
2022-11-06T02:34:39.805Z,26.73
2022-11-06T02:37:15.392Z,27.27
2022-11-06T02:39:44.782Z,21.02
2022-11-06T02:42:15.031Z,31.02
2022-11-06T02:44:44.025Z,30.95
2022-11-06T02:47:15.028Z,24.88
2022-11-06T02:49:55.768Z,22.63
2022-11-06T02:52:30.534Z,25.35
2022-11-06T02:55:05.683Z,25.95
2022-11-06T02:57:36.782Z,19.55
2022-11-06T03:00:08.151Z,39.40
2022-11-06T03:02:44.989Z,36.63
2022-11-06T03:05:19.184Z,39.58
2022-11-06T03:08:01.304Z,61.53
2022-11-06T03:10:39.109Z,65.13
2022-11-06T03:13:18.350Z,94.93
2022-11-06T03:15:57.329Z,85.93
2022-11-06T03:18:23.901Z,57.22
2022-11-06T03:21:09.105Z,50.95
2022-11-06T03:23:42.034Z,47.13
2022-11-06T03:26:20.475Z,49.67
2022-11-06T03:28:58.189Z,48.37
2022-11-06T03:31:31.348Z,45.53
2022-11-06T03:34:02.694Z,49.42
2022-11-06T03:36:34.953Z,59.65
2022-11-06T03:39:06.521Z,87.53
2022-11-06T03:41:39.652Z,63.23
2022-11-06T03:44:10.465Z,54.85
2022-11-06T03:46:42.881Z,35.10
2022-11-06T03:49:13.770Z,37.22
2022-11-06T03:51:53.603Z,32.70
2022-11-06T03:54:25.204Z,42.93
2022-11-06T03:56:59.550Z,29.20
2022-11-06T03:59:32.904Z,29.25
2022-11-06T04:02:02.453Z,20.02
2022-11-06T04:04:35.132Z,29.38
2022-11-06T04:07:14.855Z,38.93
2022-11-06T04:10:04.846Z,30.50
2022-11-06T04:12:52.469Z,21.23
2022-11-06T04:15:21.440Z,30.65
2022-11-06T04:17:48.287Z,18.45
2022-11-06T04:20:43.711Z,21.80
2022-11-06T04:23:29.383Z,20.40
2022-11-06T04:26:21.216Z,15.93
2022-11-06T04:28:48.062Z,15.80
2022-11-06T04:31:33.605Z,14.98
2022-11-06T04:34:20.203Z,14.17
2022-11-06T04:36:54.375Z,14.18
2022-11-06T04:39:24.484Z,15.45
2022-11-06T04:42:12.389Z,13.93
2022-11-06T04:44:50.516Z,13.00
2022-11-06T04:47:20.204Z,13.63
2022-11-06T04:49:50.328Z,13.07
2022-11-06T04:52:21.538Z,18.48
2022-11-06T04:54:48.552Z,18.63
2022-11-06T04:57:15.385Z,15.50
2022-11-06T04:59:42.342Z,15.30
2022-11-06T05:02:10.340Z,12.90
2022-11-06T05:04:37.313Z,14.27
2022-11-06T05:07:04.293Z,13.90
2022-11-06T05:09:31.179Z,25.05
2022-11-06T05:11:57.888Z,21.83
2022-11-06T05:14:24.814Z,24.58
2022-11-06T05:16:51.616Z,25.65
2022-11-06T05:19:18.502Z,22.58
2022-11-06T05:22:03.901Z,16.75
2022-11-06T05:24:30.864Z,26.90
2022-11-06T05:26:59.539Z,28.85
2022-11-06T05:29:26.960Z,29.45
2022-11-06T05:31:53.712Z,24.42
2022-11-06T05:34:21.275Z,22.67
2022-11-06T05:36:47.964Z,22.43
2022-11-06T05:39:15.072Z,27.08
2022-11-06T05:41:41.677Z,20.38
2022-11-06T05:44:08.603Z,23.73
2022-11-06T05:46:48.282Z,24.73
2022-11-06T05:49:18.261Z,25.27
2022-11-06T05:51:45.032Z,26.20
2022-11-06T05:54:11.881Z,41.15
2022-11-06T05:56:38.530Z,38.90
2022-11-06T05:59:05.529Z,32.83
2022-11-06T06:01:32.247Z,22.73
2022-11-06T06:03:59.181Z,27.90
2022-11-06T06:06:26.368Z,28.15
2022-11-06T06:08:53.274Z,37.05
2022-11-06T06:11:20.007Z,31.42
2022-11-06T06:13:48.356Z,34.30
2022-11-06T06:16:15.813Z,30.58
2022-11-06T06:18:42.945Z,36.80
2022-11-06T06:21:09.603Z,35.50
2022-11-06T06:23:36.536Z,32.75
2022-11-06T06:26:03.247Z,34.40
2022-11-06T06:28:30.151Z,34.83
2022-11-06T06:31:01.197Z,37.65
2022-11-06T06:33:28.862Z,24.63
2022-11-06T06:35:55.494Z,25.23
2022-11-06T06:38:22.626Z,22.20
2022-11-06T06:40:49.288Z,21.63
2022-11-06T06:43:16.157Z,21.70
2022-11-06T06:45:42.911Z,24.02
2022-11-06T06:48:10.049Z,23.23
2022-11-06T06:50:37.012Z,17.87
2022-11-06T06:53:03.996Z,25.60
2022-11-06T06:55:30.592Z,22.98
2022-11-06T06:58:01.297Z,20.88
2022-11-06T07:00:29.403Z,23.58
2022-11-06T07:02:56.507Z,25.93
2022-11-06T07:05:23.564Z,21.67
2022-11-06T07:07:50.701Z,24.30
2022-11-06T07:10:17.390Z,19.50
2022-11-06T07:12:44.302Z,20.48
2022-11-06T07:15:11.583Z,21.70
2022-11-06T07:17:38.588Z,17.48
2022-11-06T07:20:06.284Z,16.48
2022-11-06T07:22:37.361Z,19.90
2022-11-06T07:25:05.747Z,15.75
2022-11-06T07:27:33.531Z,21.43
2022-11-06T07:30:00.597Z,13.68
2022-11-06T07:32:28.051Z,18.58
2022-11-06T07:34:54.664Z,15.52
2022-11-06T07:37:21.757Z,12.27
2022-11-06T07:39:48.455Z,13.53
2022-11-06T07:42:15.330Z,15.48
2022-11-06T07:44:55.859Z,14.32
2022-11-06T07:47:22.968Z,16.73
2022-11-06T07:49:51.134Z,15.20
2022-11-06T07:52:18.238Z,15.70
2022-11-06T07:54:44.866Z,14.43
2022-11-06T07:57:11.713Z,14.77
2022-11-06T07:59:38.426Z,14.38
2022-11-06T08:02:05.737Z,12.85
2022-11-06T08:04:32.541Z,11.90
2022-11-06T08:06:59.540Z,13.13
2022-11-06T08:09:26.179Z,11.60
2022-11-06T08:11:53.055Z,13.65
2022-11-06T08:14:19.660Z,11.27
2022-11-06T08:16:46.521Z,13.07
2022-11-06T08:19:13.358Z,9.47
2022-11-06T08:21:40.423Z,10.50
2022-11-06T08:24:07.257Z,9.93
2022-11-06T08:26:34.241Z,9.38
2022-11-06T08:29:00.888Z,10.57
2022-11-06T08:31:27.895Z,9.77
2022-11-06T08:33:54.584Z,10.43
2022-11-06T08:36:21.473Z,10.00
2022-11-06T08:38:48.529Z,10.73
2022-11-06T08:41:15.397Z,9.82
2022-11-06T08:43:41.985Z,10.10
2022-11-06T08:46:10.123Z,11.10
2022-11-06T08:48:37.365Z,8.75
2022-11-06T08:51:05.485Z,8.60
2022-11-06T08:53:32.115Z,11.00
2022-11-06T08:55:59.092Z,10.00
2022-11-06T08:58:25.784Z,9.82
2022-11-06T09:00:52.681Z,11.70
2022-11-06T09:03:19.340Z,9.30
2022-11-06T09:05:46.879Z,11.50
2022-11-06T09:08:14.395Z,12.00
2022-11-06T09:10:42.526Z,12.15
2022-11-06T09:13:10.411Z,13.13
2022-11-06T09:15:38.001Z,13.35
2022-11-06T09:18:05.170Z,14.32
2022-11-06T09:20:32.135Z,13.67
2022-11-06T09:23:04.305Z,15.77
2022-11-06T09:25:31.490Z,13.93
2022-11-06T09:27:59.744Z,12.93
2022-11-06T09:30:29.048Z,12.18
2022-11-06T09:32:58.243Z,11.80
2022-11-06T09:35:26.029Z,11.80
2022-11-06T09:37:53.110Z,11.20
2022-11-06T09:40:50.703Z,10.88
2022-11-06T09:43:58.247Z,11.45
2022-11-06T09:46:31.904Z,11.17
2022-11-06T09:49:08.758Z,10.07
2022-11-06T09:51:48.644Z,9.48
2022-11-06T09:54:40.053Z,10.43
2022-11-06T09:57:17.420Z,10.63
2022-11-06T09:59:45.297Z,10.00
2022-11-06T10:02:36.815Z,7.38
2022-11-06T10:05:22.191Z,7.20
2022-11-06T10:07:52.389Z,8.02
2022-11-06T10:10:24.840Z,7.32
2022-11-06T10:13:19.369Z,7.13
2022-11-06T10:15:55.631Z,7.30
2022-11-06T10:18:22.236Z,8.23
2022-11-06T10:20:54.531Z,7.07
2022-11-06T10:23:32.485Z,6.80
2022-11-06T10:26:33.850Z,7.13
2022-11-06T10:29:07.753Z,5.60
2022-11-06T10:32:13.336Z,5.20
2022-11-06T10:34:43.898Z,5.28
2022-11-06T10:37:18.244Z,5.70
2022-11-06T10:39:46.875Z,6.03
2022-11-06T10:42:35.162Z,5.43
2022-11-06T10:45:15.946Z,6.57
2022-11-06T10:47:49.729Z,6.05
2022-11-06T10:50:17.804Z,6.10
2022-11-06T10:52:50.818Z,6.23
2022-11-06T10:55:56.837Z,5.35
2022-11-06T10:58:29.006Z,4.85
2022-11-06T11:01:03.907Z,4.50
2022-11-06T11:03:42.819Z,5.28
2022-11-06T11:06:09.678Z,5.97
2022-11-06T11:08:42.570Z,5.47
2022-11-06T11:11:18.296Z,4.88
2022-11-06T11:13:56.310Z,5.47
2022-11-06T11:16:28.196Z,6.05
2022-11-06T11:18:55.190Z,7.07
2022-11-06T11:21:27.866Z,5.97
2022-11-06T11:24:00.712Z,5.50
2022-11-06T11:26:29.974Z,5.93
2022-11-06T11:28:59.723Z,7.00
2022-11-06T11:31:34.789Z,5.77
2022-11-06T11:34:14.621Z,5.32
2022-11-06T11:37:00.769Z,4.85
2022-11-06T11:39:35.687Z,5.20
2022-11-06T11:42:21.357Z,5.13
2022-11-06T11:45:11.468Z,5.53
2022-11-06T11:47:40.491Z,5.25
2022-11-06T11:50:28.647Z,5.28
2022-11-06T11:53:09.709Z,5.20
2022-11-06T11:55:49.092Z,5.10
2022-11-06T11:58:26.754Z,5.40
2022-11-06T12:01:00.014Z,4.78
2022-11-06T12:03:34.121Z,5.13
2022-11-06T12:06:08.116Z,6.68
2022-11-06T12:08:35.264Z,6.80
2022-11-06T12:11:07.279Z,8.30
2022-11-06T12:13:33.981Z,6.90
2022-11-06T12:16:03.326Z,7.35
2022-11-06T12:18:41.168Z,8.10
2022-11-06T12:21:27.621Z,7.40
2022-11-06T12:24:11.167Z,8.67
2022-11-06T12:27:15.199Z,9.70
2022-11-06T12:29:48.230Z,9.35
2022-11-06T12:32:24.277Z,10.63
2022-11-06T12:35:01.552Z,13.52
2022-11-06T12:37:48.692Z,13.03
2022-11-06T12:40:24.718Z,14.00
2022-11-06T12:43:03.439Z,15.00
2022-11-06T12:46:04.580Z,13.65
2022-11-06T12:49:02.491Z,14.30
2022-11-06T12:52:03.062Z,15.27
2022-11-06T12:54:54.252Z,10.98
2022-11-06T12:57:51.923Z,8.00
2022-11-06T13:00:31.308Z,10.77
2022-11-06T13:03:35.333Z,14.40
2022-11-06T13:06:13.497Z,13.30
2022-11-06T13:08:54.586Z,12.32
2022-11-06T13:11:27.537Z,12.35
2022-11-06T13:14:07.257Z,13.98
2022-11-06T13:16:55.670Z,10.32
2022-11-06T13:19:34.491Z,10.70
2022-11-06T13:22:27.138Z,35.58
2022-11-06T13:25:05.465Z,18.17
2022-11-06T13:27:51.528Z,17.55
2022-11-06T13:30:20.996Z,14.65
2022-11-06T13:33:12.640Z,10.33
2022-11-06T13:35:41.590Z,9.80
2022-11-06T13:38:13.666Z,11.45
2022-11-06T13:40:43.303Z,52.50
2022-11-06T13:43:10.164Z,13.57
2022-11-06T13:46:02.959Z,43.47
2022-11-06T13:48:44.727Z,23.27
2022-11-06T13:51:18.512Z,15.15
2022-11-06T13:53:48.684Z,11.70
2022-11-06T13:56:21.488Z,13.18
2022-11-06T13:59:09.105Z,14.13
2022-11-06T14:01:46.308Z,12.68
2022-11-06T14:04:19.201Z,16.50
2022-11-06T14:06:46.785Z,12.55
2022-11-06T14:09:24.239Z,12.60
2022-11-06T14:11:54.907Z,14.63
2022-11-06T14:14:21.748Z,15.45
2022-11-06T14:17:17.761Z,12.98
2022-11-06T14:19:50.694Z,10.55
2022-11-06T14:22:36.737Z,11.68
2022-11-06T14:25:25.562Z,12.90
2022-11-06T14:28:05.019Z,12.43
2022-11-06T14:31:05.589Z,13.50
2022-11-06T14:33:40.422Z,13.48
2022-11-06T14:36:14.795Z,14.40
2022-11-06T14:38:42.725Z,15.13
2022-11-06T14:41:34.748Z,15.20
2022-11-06T14:44:21.149Z,14.93
2022-11-06T14:46:58.519Z,14.45
2022-11-06T14:49:43.884Z,12.35
2022-11-06T14:52:14.171Z,10.77
2022-11-06T14:54:50.342Z,17.83
2022-11-06T14:57:33.263Z,16.52
2022-11-06T15:00:00.626Z,12.23
2022-11-06T15:02:30.760Z,13.13
2022-11-06T15:05:04.532Z,13.57
2022-11-06T15:10:41.969Z,14.43
2022-11-06T15:13:18.276Z,14.65
2022-11-06T15:16:03.444Z,13.18
2022-11-06T15:18:32.932Z,13.50
2022-11-06T15:21:07.750Z,14.93
2022-11-06T15:23:42.630Z,12.65
2022-11-06T15:26:28.717Z,11.23
2022-11-06T15:29:26.095Z,12.15
2022-11-06T15:32:00.484Z,14.60
2022-11-06T15:34:42.901Z,14.98
2022-11-06T15:37:17.655Z,12.32
2022-11-06T15:39:47.528Z,11.57
2022-11-06T15:42:16.802Z,12.55
2022-11-06T15:44:46.356Z,11.90
2022-11-06T15:47:28.049Z,14.68
2022-11-06T15:50:19.335Z,13.73
2022-11-06T15:52:47.236Z,10.18
2022-11-06T15:55:36.105Z,11.75
2022-11-06T15:58:28.086Z,10.83
2022-11-06T16:00:59.305Z,11.13
2022-11-06T16:03:30.309Z,11.25
2022-11-06T16:06:00.616Z,10.70
2022-11-06T16:08:30.031Z,10.32
2022-11-06T16:10:57.939Z,11.77
2022-11-06T16:13:26.085Z,10.93
2022-11-06T16:15:57.223Z,10.20
2022-11-06T16:18:26.025Z,10.10
2022-11-06T16:21:19.188Z,10.82
2022-11-06T16:23:52.761Z,10.70
2022-11-06T16:26:22.658Z,11.07
2022-11-06T16:28:51.304Z,11.07
2022-11-06T16:31:21.211Z,12.85
2022-11-06T16:34:06.183Z,14.38
2022-11-06T16:36:52.280Z,15.00
2022-11-06T16:39:40.216Z,15.18
2022-11-06T16:42:19.734Z,27.40
2022-11-06T16:44:48.023Z,31.98
2022-11-06T16:47:20.270Z,26.55
2022-11-06T16:49:57.649Z,44.67
2022-11-06T16:52:32.923Z,39.65
2022-11-06T16:55:16.647Z,35.75
2022-11-06T16:57:57.356Z,26.35
2022-11-06T17:00:30.890Z,25.05
2022-11-06T17:03:18.280Z,29.27
2022-11-06T17:05:58.774Z,28.85
2022-11-06T17:08:36.670Z,20.95
2022-11-06T17:11:12.835Z,21.35
2022-11-06T17:13:46.382Z,30.02
2022-11-06T17:16:22.543Z,25.23
2022-11-06T17:18:49.898Z,29.15
2022-11-06T17:21:23.164Z,30.42
2022-11-06T17:23:51.085Z,38.45
2022-11-06T17:26:28.227Z,28.80
2022-11-06T17:28:56.335Z,25.00
2022-11-06T17:31:24.253Z,31.35
2022-11-06T17:33:51.440Z,29.23
2022-11-06T17:36:26.512Z,23.30
2022-11-06T17:38:54.741Z,23.17
2022-11-06T17:41:30.827Z,23.07
2022-11-06T17:44:12.284Z,20.65
2022-11-06T17:46:44.427Z,18.30
2022-11-06T17:49:17.101Z,20.35
2022-11-06T17:52:00.248Z,19.08
2022-11-06T17:54:33.177Z,19.53
2022-11-06T17:57:02.674Z,20.45
2022-11-06T17:59:30.672Z,25.88
2022-11-06T18:01:57.947Z,24.92
2022-11-06T18:04:27.740Z,24.17
2022-11-06T18:06:54.806Z,32.80
2022-11-06T18:09:22.607Z,23.63
2022-11-06T18:11:51.081Z,21.83
2022-11-06T18:14:19.288Z,21.33
2022-11-06T18:16:46.591Z,19.20
2022-11-06T18:19:18.650Z,20.50
2022-11-06T18:21:46.042Z,24.08
2022-11-06T18:24:12.713Z,21.73
2022-11-06T18:26:40.089Z,21.92
2022-11-06T18:29:08.122Z,22.25
2022-11-06T18:31:35.528Z,31.03
2022-11-06T18:34:03.276Z,21.23
2022-11-06T18:36:32.197Z,18.90
2022-11-06T18:38:58.977Z,15.18
2022-11-06T18:41:25.905Z,20.45
2022-11-06T18:43:57.561Z,66.53
2022-11-06T18:46:29.826Z,43.92
2022-11-06T18:48:57.390Z,50.30
2022-11-06T18:51:35.161Z,39.50
2022-11-06T18:54:05.756Z,27.77
2022-11-06T18:56:33.867Z,24.27
2022-11-06T18:59:00.612Z,30.88
2022-11-06T19:01:28.567Z,28.20
2022-11-06T19:03:55.311Z,27.67
2022-11-06T19:06:22.205Z,28.92
2022-11-06T19:08:49.202Z,22.53
2022-11-06T19:11:18.139Z,25.48
2022-11-06T19:13:48.395Z,28.13
2022-11-06T19:16:20.696Z,32.90
2022-11-06T19:21:29.834Z,30.27
2022-11-06T19:24:03.304Z,53.42
2022-11-06T19:26:32.353Z,28.83
2022-11-06T19:29:00.626Z,25.33
2022-11-06T19:31:29.562Z,29.33
2022-11-06T19:34:01.878Z,32.60
2022-11-06T19:36:29.568Z,38.20
2022-11-06T19:39:00.009Z,30.88
2022-11-06T19:41:28.720Z,28.98
2022-11-06T19:43:55.376Z,25.63
2022-11-06T19:46:28.278Z,26.83
2022-11-06T19:48:56.891Z,23.27
2022-11-06T19:51:24.865Z,23.35
2022-11-06T19:53:53.566Z,21.85
2022-11-06T19:56:21.360Z,25.48
2022-11-06T19:58:50.045Z,25.83
2022-11-06T20:01:19.012Z,22.80
2022-11-06T20:03:46.829Z,20.27
2022-11-06T20:06:14.997Z,24.50
2022-11-06T20:08:42.513Z,30.90
2022-11-06T20:11:13.001Z,34.53
2022-11-06T20:13:41.096Z,39.88
2022-11-06T20:16:19.848Z,45.83
2022-11-06T20:18:54.472Z,35.65
2022-11-06T20:21:22.274Z,35.65
2022-11-06T20:23:49.397Z,35.50
2022-11-06T20:26:16.384Z,26.98
2022-11-06T20:28:43.066Z,20.75
2022-11-06T20:31:11.630Z,22.02
2022-11-06T20:33:38.640Z,22.40
2022-11-06T20:36:26.874Z,26.27
2022-11-06T20:38:59.615Z,27.25
2022-11-06T20:41:28.487Z,24.40
2022-11-06T20:43:55.586Z,22.50
2022-11-06T20:46:23.829Z,20.83
2022-11-06T20:48:50.732Z,18.57
2022-11-06T20:51:23.655Z,21.30
2022-11-06T20:53:50.683Z,23.80
2022-11-06T20:56:20.633Z,22.17
2022-11-06T20:58:47.588Z,23.40
2022-11-06T21:01:23.999Z,16.73
2022-11-06T21:03:51.783Z,20.25
2022-11-06T21:06:21.024Z,17.67
2022-11-06T21:08:48.933Z,28.02
2022-11-06T21:11:19.462Z,26.52
2022-11-06T21:13:47.913Z,19.87
2022-11-06T21:16:23.553Z,16.80
2022-11-06T21:18:50.918Z,20.90
2022-11-06T21:21:21.629Z,22.20
2022-11-06T21:23:49.972Z,19.40
2022-11-06T21:26:25.651Z,20.97
2022-11-06T21:28:52.736Z,23.55
2022-11-06T21:31:22.756Z,22.02
2022-11-06T21:33:51.577Z,19.45
2022-11-06T21:36:25.229Z,42.03
2022-11-06T21:38:53.140Z,34.57
2022-11-06T21:41:25.414Z,26.20
2022-11-06T21:43:52.417Z,21.55
2022-11-06T21:46:20.014Z,21.25
2022-11-06T21:48:47.959Z,22.13
2022-11-06T21:51:22.271Z,23.57
2022-11-06T21:54:07.974Z,21.23
2022-11-06T21:56:35.806Z,17.13
2022-11-06T21:59:04.876Z,19.88
2022-11-06T22:01:32.753Z,18.08
2022-11-06T22:04:00.189Z,18.07
2022-11-06T22:06:28.732Z,20.95
2022-11-06T22:08:57.679Z,24.95
2022-11-06T22:11:30.536Z,24.67
2022-11-06T22:13:59.768Z,42.10
2022-11-06T22:16:30.127Z,43.50
2022-11-06T22:18:57.710Z,48.67
2022-11-06T22:21:27.051Z,42.25
2022-11-06T22:23:53.865Z,45.13
2022-11-06T22:26:27.860Z,45.20
2022-11-06T22:28:59.003Z,41.03
2022-11-06T22:31:26.909Z,36.45
2022-11-06T22:33:54.317Z,31.83
2022-11-06T22:36:22.588Z,30.05
2022-11-06T22:38:49.898Z,22.42
2022-11-06T22:41:19.253Z,22.00
2022-11-06T22:43:46.000Z,32.47
2022-11-06T22:46:19.626Z,29.85
2022-11-06T22:48:46.921Z,21.02
2022-11-06T22:51:17.743Z,18.45
2022-11-06T22:53:45.028Z,22.77
2022-11-06T22:56:12.603Z,22.90
2022-11-06T22:58:40.696Z,19.90
2022-11-06T23:01:08.405Z,21.20
2022-11-06T23:03:35.156Z,19.98
2022-11-06T23:06:07.473Z,14.67
2022-11-06T23:08:36.435Z,18.40
2022-11-06T23:11:11.623Z,19.33
2022-11-06T23:13:39.421Z,19.05
2022-11-06T23:16:09.463Z,23.63
2022-11-06T23:18:36.462Z,23.63
2022-11-06T23:21:11.373Z,26.38
2022-11-06T23:23:38.313Z,23.88
2022-11-06T23:26:17.343Z,28.60
2022-11-06T23:28:45.383Z,24.40
2022-11-06T23:31:13.852Z,26.87
2022-11-06T23:33:41.895Z,24.08
2022-11-06T23:36:11.679Z,21.83
2022-11-06T23:38:38.809Z,17.90
2022-11-06T23:41:26.860Z,14.93
2022-11-06T23:43:55.009Z,14.73
2022-11-06T23:46:23.541Z,18.08
2022-11-06T23:48:50.857Z,16.80
2022-11-06T23:51:17.837Z,18.58
2022-11-06T23:53:44.840Z,16.60
2022-11-06T23:56:12.877Z,16.20
2022-11-06T23:58:40.914Z,18.10
